Time;durP1;ratioP1;P1;durP2;ratioP2;P2;SDS_P1;SDS_P2;PMS_P1;PMS_P2;Temp;Humidity;BMP_temperature;BMP_pressure;BME280_temperature;BME280_humidity;BME280_pressure;Samples;Min_cycle;Max_cycle;Signal;HPM_P1;HPM_P2
2021/07/06 00:00:08;;;;;;;3.92;2.30;;;;;;;23.81;100.00;95978.34;4970236;28;20066;-53
2021/07/06 00:02:36;;;;;;;5.78;2.55;;;;;;;23.39;100.00;95973.19;4970442;28;20070;-52
2021/07/06 00:05:08;;;;;;;4.80;2.58;;;;;;;23.49;100.00;95975.28;4966933;28;20050;-48
2021/07/06 00:07:39;;;;;;;4.65;2.33;;;;;;;23.31;100.00;95981.63;4972080;28;20083;-49
2021/07/06 00:10:09;;;;;;;3.00;2.15;;;;;;;23.11;100.00;95973.94;4986177;28;20348;-50
2021/07/06 00:12:38;;;;;;;2.40;2.10;;;;;;;23.29;100.00;95973.78;4976400;28;20050;-48
2021/07/06 00:15:08;;;;;;;5.15;2.33;;;;;;;23.56;100.00;95968.69;4967185;28;20066;-49
2021/07/06 00:17:37;;;;;;;2.05;1.83;;;;;;;23.75;100.00;95969.38;4970034;28;20070;-49
2021/07/06 00:20:08;;;;;;;3.55;2.03;;;;;;;22.65;100.00;95971.00;4975788;28;20077;-54
2021/07/06 00:22:38;;;;;;;3.58;2.20;;;;;;;22.22;100.00;95972.06;4974197;28;20089;-50
2021/07/06 00:25:08;;;;;;;2.03;1.80;;;;;;;22.25;100.00;95968.94;4988439;28;20038;-51
2021/07/06 00:27:37;;;;;;;2.90;2.13;;;;;;;23.22;100.00;95967.72;4990248;28;20081;-52
2021/07/06 00:30:06;;;;;;;2.47;2.20;;;;;;;23.60;100.00;95963.66;4993828;28;20484;-49
2021/07/06 00:32:35;;;;;;;2.53;2.33;;;;;;;23.16;100.00;95974.06;4984034;28;20469;-52
2021/07/06 00:35:05;;;;;;;2.65;2.05;;;;;;;23.72;100.00;95969.88;4969633;28;20459;-52
2021/07/06 00:37:34;;;;;;;2.10;1.90;;;;;;;23.17;100.00;95967.63;4976756;28;20070;-55
2021/07/06 00:40:05;;;;;;;2.78;2.13;;;;;;;23.65;100.00;95961.88;4969821;28;20541;-53
2021/07/06 00:42:34;;;;;;;3.42;2.00;;;;;;;23.41;100.00;95966.53;4984909;28;20072;-52
2021/07/06 00:45:03;;;;;;;3.05;2.10;;;;;;;23.43;100.00;95967.13;4975130;28;20442;-55
2021/07/06 00:47:33;;;;;;;2.92;2.20;;;;;;;22.67;100.00;95958.13;4973331;28;20077;-53
2021/07/06 00:50:03;;;;;;;3.05;2.35;;;;;;;22.20;100.00;95958.06;4971788;28;20111;-53
2021/07/06 00:52:32;;;;;;;3.67;2.15;;;;;;;22.08;100.00;95961.75;4996583;28;20061;-55
2021/07/06 00:55:01;;;;;;;3.70;2.10;;;;;;;21.92;100.00;95960.50;4986245;28;20449;-50
2021/07/06 00:57:31;;;;;;;4.97;2.20;;;;;;;21.68;100.00;95963.13;4974016;28;20077;-55
2021/07/06 01:00:00;;;;;;;3.08;2.40;;;;;;;22.19;100.00;95960.97;4986377;28;20121;-55
2021/07/06 01:02:29;;;;;;;5.25;2.70;;;;;;;21.61;100.00;95962.38;4992525;28;20073;-54
2021/07/06 01:04:57;;;;;;;4.53;2.60;;;;;;;21.99;100.00;95972.81;4993865;28;20065;-54
2021/07/06 01:07:26;;;;;;;3.50;2.30;;;;;;;23.11;100.00;95958.63;4972321;28;20066;-53
2021/07/06 01:09:54;;;;;;;3.50;2.30;;;;;;;22.15;100.00;95962.50;4978064;28;20066;-49
2021/07/06 01:12:23;;;;;;;2.58;2.05;;;;;;;23.26;100.00;95947.34;4976569;28;20070;-48
2021/07/06 01:14:53;;;;;;;6.28;2.08;;;;;;;23.16;100.00;95952.53;4978224;28;20076;-47
2021/07/06 01:17:28;;;;;;;3.25;2.20;;;;;;;23.31;100.00;95946.66;4993721;28;20085;-51
2021/07/06 01:19:59;;;;;;;3.15;2.85;;;;;;;22.50;100.00;95947.28;4975091;28;20082;-48
2021/07/06 01:22:29;;;;;;;4.75;2.95;;;;;;;22.21;100.00;95948.16;4992593;28;20339;-53
2021/07/06 01:24:58;;;;;;;6.55;3.00;;;;;;;22.29;100.00;95937.06;4974702;28;20063;-53
2021/07/06 01:27:26;;;;;;;3.80;3.00;;;;;;;21.75;100.00;95947.75;4980496;28;20062;-53
2021/07/06 01:29:55;;;;;;;5.93;3.03;;;;;;;21.73;100.00;95938.28;4974948;28;20067;-49
2021/07/06 01:32:24;;;;;;;5.15;3.05;;;;;;;21.72;100.00;95940.16;4981567;28;20081;-49
2021/07/06 01:34:52;;;;;;;3.50;3.00;;;;;;;21.27;100.00;95932.44;4990631;28;20046;-48
2021/07/06 01:37:21;;;;;;;3.70;3.10;;;;;;;22.03;100.00;95928.34;4978254;28;20079;-52
2021/07/06 01:39:51;;;;;;;4.55;2.80;;;;;;;22.60;100.00;95918.97;4972146;28;20082;-47
2021/07/06 01:42:20;;;;;;;4.13;3.10;;;;;;;22.99;100.00;95917.50;4973769;28;20074;-50
2021/07/06 01:44:48;;;;;;;7.55;3.40;;;;;;;22.04;100.00;95919.22;4973958;28;20552;-50
2021/07/06 01:47:17;;;;;;;5.07;2.47;;;;;;;22.62;100.00;95912.31;4982148;28;20080;-48
2021/07/06 01:49:45;;;;;;;4.93;2.30;;;;;;;22.39;100.00;95907.75;4991148;28;20084;-49
2021/07/06 01:52:14;;;;;;;3.92;2.50;;;;;;;22.13;100.00;95903.63;4972807;28;20093;-47
2021/07/06 01:54:43;;;;;;;3.00;2.63;;;;;;;21.65;100.00;95917.94;4971626;28;20069;-51
2021/07/06 01:57:15;;;;;;;3.83;3.00;;;;;;;22.79;100.00;95904.38;4972708;28;20066;-51
2021/07/06 01:59:43;;;;;;;4.60;2.53;;;;;;;23.27;100.00;95902.47;4968820;28;20071;-48
2021/07/06 02:02:12;;;;;;;4.00;2.55;;;;;;;23.45;100.00;95896.91;4978010;28;20065;-56
2021/07/06 02:04:41;;;;;;;4.57;3.08;;;;;;;23.32;100.00;95894.47;4994290;28;20104;-59
2021/07/06 02:07:09;;;;;;;5.38;2.85;;;;;;;22.86;100.00;95888.94;4971870;28;20671;-55
2021/07/06 02:09:38;;;;;;;3.88;2.70;;;;;;;23.37;100.00;95889.22;4986491;28;20081;-54
2021/07/06 02:12:07;;;;;;;5.15;2.10;;;;;;;22.77;100.00;95892.22;4987623;28;20065;-53
2021/07/06 02:14:37;;;;;;;4.18;2.20;;;;;;;22.82;100.00;95887.78;4986822;28;20126;-52
2021/07/06 02:17:05;;;;;;;2.00;1.85;;;;;;;22.36;100.00;95884.03;4966770;28;20539;-54
2021/07/06 02:19:34;;;;;;;3.58;2.30;;;;;;;22.62;100.00;95888.13;4995712;28;20089;-53
2021/07/06 02:22:03;;;;;;;3.30;1.75;;;;;;;22.89;100.00;95887.66;4975162;28;20089;-57
2021/07/06 02:24:31;;;;;;;4.00;2.00;;;;;;;22.87;100.00;95892.44;4964915;28;20473;-53
2021/07/06 02:27:00;;;;;;;3.08;2.40;;;;;;;23.09;100.00;95887.28;4970364;28;20053;-59
2021/07/06 02:29:28;;;;;;;4.35;2.90;;;;;;;23.08;100.00;95886.47;4976307;28;20078;-55
2021/07/06 02:31:58;;;;;;;5.10;3.35;;;;;;;23.09;100.00;95889.97;4977590;28;20453;-57
2021/07/06 02:34:26;;;;;;;2.80;2.47;;;;;;;22.75;100.00;95881.72;4990503;28;20078;-51
2021/07/06 02:36:55;;;;;;;4.22;2.50;;;;;;;22.30;100.00;95882.31;4971865;28;20529;-54
2021/07/06 02:39:23;;;;;;;5.47;2.78;;;;;;;22.58;100.00;95872.72;4975122;28;20537;-53
2021/07/06 02:41:51;;;;;;;6.63;2.60;;;;;;;22.70;100.00;95876.22;4995485;23;20053;-61
2021/07/06 02:44:20;;;;;;;4.18;3.10;;;;;;;22.92;100.00;95877.28;5001945;28;20034;-61
2021/07/06 02:46:48;;;;;;;2.83;2.55;;;;;;;22.06;100.00;95878.75;4990125;28;20081;-61
2021/07/06 02:49:18;;;;;;;4.18;2.35;;;;;;;22.38;100.00;95875.75;5011749;28;20539;-62
2021/07/06 02:51:46;;;;;;;5.57;2.80;;;;;;;22.42;100.00;95869.69;4989455;28;20088;-61
2021/07/06 02:54:15;;;;;;;4.85;2.60;;;;;;;22.34;100.00;95867.34;5010483;28;20074;-61
2021/07/06 02:56:43;;;;;;;4.00;3.03;;;;;;;22.46;100.00;95868.16;5030262;28;20065;-61
2021/07/06 02:59:11;;;;;;;4.50;2.70;;;;;;;21.80;100.00;95866.53;5024693;28;20069;-61
2021/07/06 03:01:40;;;;;;;3.42;2.50;;;;;;;21.80;100.00;95866.53;5024673;28;20077;-61
2021/07/06 03:04:08;;;;;;;2.85;2.47;;;;;;;21.83;100.00;95868.75;5026396;28;21378;-62
2021/07/06 03:06:38;;;;;;;3.58;2.92;;;;;;;22.63;100.00;95865.56;5025197;28;20061;-62
2021/07/06 03:09:07;;;;;;;4.47;3.10;;;;;;;22.83;100.00;95854.44;5022414;28;20083;-62
2021/07/06 03:11:35;;;;;;;3.33;3.03;;;;;;;22.74;100.00;95856.69;5026953;28;20492;-61
2021/07/06 03:14:03;;;;;;;7.40;3.08;;;;;;;22.60;100.00;95867.91;5028308;28;20527;-62
2021/07/06 03:16:32;;;;;;;4.63;2.60;;;;;;;22.98;100.00;95864.72;5025460;28;20089;-61
2021/07/06 03:19:00;;;;;;;3.75;2.90;;;;;;;23.11;100.00;95860.97;5022823;28;20114;-61
2021/07/06 03:21:29;;;;;;;3.90;2.28;;;;;;;22.70;100.00;95865.44;5025673;28;20072;-62
2021/07/06 03:23:58;;;;;;;2.30;2.00;;;;;;;22.87;100.00;95868.25;5026326;28;20061;-61
2021/07/06 03:26:27;;;;;;;3.90;2.40;;;;;;;22.87;100.00;95863.69;5023662;28;20448;-62
2021/07/06 03:28:55;;;;;;;3.72;2.00;;;;;;;22.91;100.00;95853.25;5031913;28;20073;-61
2021/07/06 03:31:25;;;;;;;2.53;1.80;;;;;;;22.68;100.00;95851.44;5029024;28;20073;-61
2021/07/06 03:33:53;;;;;;;2.03;1.83;;;;;;;22.31;100.00;95853.56;5024167;28;20421;-61
2021/07/06 03:36:22;;;;;;;3.22;2.33;;;;;;;22.90;100.00;95847.06;5025789;28;20073;-61
2021/07/06 03:38:50;;;;;;;3.28;2.50;;;;;;;23.09;100.00;95852.31;5029054;28;20076;-61
2021/07/06 03:41:20;;;;;;;5.07;2.08;;;;;;;22.94;100.00;95848.25;5025645;28;20079;-62
2021/07/06 03:43:48;;;;;;;1.48;1.30;;;;;;;22.37;100.00;95852.63;5025456;28;20073;-62
2021/07/06 03:46:16;;;;;;;2.40;1.52;;;;;;;22.56;100.00;95845.25;5033435;28;20462;-61
2021/07/06 03:48:45;;;;;;;1.98;1.77;;;;;;;22.89;100.00;95844.63;5023631;28;20091;-60
2021/07/06 03:51:13;;;;;;;2.45;1.60;;;;;;;22.74;100.00;95853.19;5022819;28;20080;-61
2021/07/06 03:53:43;;;;;;;3.63;1.80;;;;;;;23.23;100.00;95845.63;5023516;28;20065;-61
2021/07/06 03:56:11;;;;;;;2.90;1.50;;;;;;;23.41;100.00;95848.13;5025270;28;20087;-62
2021/07/06 03:58:41;;;;;;;1.80;1.70;;;;;;;23.94;100.00;95848.81;5023872;28;20543;-62
2021/07/06 04:01:09;;;;;;;2.63;2.42;;;;;;;26.40;73.50;95841.84;5024533;28;20076;-58
2021/07/06 04:03:38;;;;;;;2.13;1.92;;;;;;;27.91;60.54;95833.84;5025404;28;20080;-60
2021/07/06 04:06:06;;;;;;;4.60;2.05;;;;;;;29.07;52.11;95842.94;5020275;28;20037;-61
2021/07/06 04:08:35;;;;;;;2.15;1.95;;;;;;;29.57;49.24;95840.28;5026992;28;20068;-56
2021/07/06 04:11:03;;;;;;;2.05;1.80;;;;;;;28.09;52.86;95838.72;5023375;28;20077;-59
2021/07/06 04:13:32;;;;;;;2.03;1.85;;;;;;;28.24;54.62;95837.91;5029240;28;20080;-56
2021/07/06 04:16:01;;;;;;;4.72;2.97;;;;;;;29.75;49.50;95836.94;5024369;28;20087;-59
2021/07/06 04:18:30;;;;;;;4.25;2.65;;;;;;;29.86;47.60;95831.44;5026166;28;20080;-60
2021/07/06 04:21:00;;;;;;;4.60;2.55;;;;;;;31.55;43.15;95822.41;5025558;28;20069;-57
2021/07/06 04:23:28;;;;;;;4.13;2.50;;;;;;;32.33;40.94;95827.22;5021184;28;20065;-58
2021/07/06 04:25:57;;;;;;;5.18;2.85;;;;;;;32.65;40.21;95830.25;5025973;28;20077;-57
2021/07/06 04:28:25;;;;;;;2.80;2.50;;;;;;;32.56;39.65;95827.41;5031287;28;20087;-59
2021/07/06 04:30:53;;;;;;;4.43;2.80;;;;;;;32.32;40.39;95825.59;5028709;28;20678;-59
2021/07/06 04:33:23;;;;;;;2.80;2.50;;;;;;;33.02;39.88;95829.31;5027446;28;20183;-58
2021/07/06 04:35:52;;;;;;;3.58;2.40;;;;;;;34.30;37.38;95831.97;5032130;28;20449;-59
2021/07/06 04:38:20;;;;;;;2.58;2.30;;;;;;;35.53;34.86;95833.09;5031570;28;20077;-61
2021/07/06 04:40:48;;;;;;;4.60;2.20;;;;;;;35.31;34.65;95839.47;5031114;28;20083;-59
2021/07/06 04:43:17;;;;;;;5.57;2.50;;;;;;;36.19;34.00;95852.19;5031333;28;20088;-59
2021/07/06 04:45:45;;;;;;;4.90;2.63;;;;;;;36.19;33.88;95854.94;5031867;28;20061;-60
2021/07/06 04:48:14;;;;;;;3.03;2.63;;;;;;;36.52;33.72;95858.00;5029087;28;20065;-60
2021/07/06 04:50:43;;;;;;;3.42;3.13;;;;;;;37.63;31.69;95853.56;5027469;28;20464;-59
2021/07/06 04:53:12;;;;;;;6.90;3.20;;;;;;;38.51;30.33;95849.00;5027695;28;20076;-57
2021/07/06 04:55:40;;;;;;;5.38;3.15;;;;;;;37.50;31.77;95856.22;5030973;28;20115;-59
2021/07/06 04:58:09;;;;;;;4.32;2.90;;;;;;;37.84;31.57;95856.34;5033435;28;20067;-59
2021/07/06 05:00:37;;;;;;;4.00;3.08;;;;;;;37.28;32.32;95857.28;5028016;28;20065;-60
2021/07/06 05:03:05;;;;;;;4.07;2.90;;;;;;;37.32;32.61;95859.38;5027749;28;20078;-59
2021/07/06 05:05:38;;;;;;;4.78;3.10;;;;;;;36.25;34.30;95864.63;5034125;28;20084;-60
2021/07/06 05:08:10;;;;;;;6.53;2.78;;;;;;;35.70;34.65;95864.41;5035772;28;20071;-60
2021/07/06 05:10:39;;;;;;;3.53;2.63;;;;;;;36.46;34.17;95855.72;5027505;28;20089;-59
2021/07/06 05:13:11;;;;;;;3.63;2.83;;;;;;;35.58;34.50;95854.88;5023960;28;20061;-60
2021/07/06 05:15:39;;;;;;;6.40;3.00;;;;;;;35.75;35.12;95853.28;5029709;28;20061;-59
2021/07/06 05:18:08;;;;;;;4.00;2.90;;;;;;;34.66;36.35;95851.91;5031574;28;20777;-60
2021/07/06 05:20:37;;;;;;;3.17;2.50;;;;;;;35.20;36.31;95851.81;5023681;28;20070;-60
2021/07/06 05:23:05;;;;;;;3.85;2.78;;;;;;;36.41;34.69;95844.91;5030739;28;20448;-58
2021/07/06 05:25:35;;;;;;;5.30;2.95;;;;;;;34.84;37.48;95841.84;5036921;28;20084;-60
2021/07/06 05:28:04;;;;;;;4.35;2.70;;;;;;;36.09;35.26;95827.81;5024498;28;20068;-60
2021/07/06 05:30:32;;;;;;;4.00;2.70;;;;;;;35.88;35.71;95827.63;5031427;28;20084;-60
2021/07/06 05:33:00;;;;;;;2.95;2.55;;;;;;;33.78;39.65;95833.16;5032838;28;20076;-60
2021/07/06 05:35:28;;;;;;;2.72;2.13;;;;;;;32.87;41.57;95835.84;5028815;28;20076;-60
2021/07/06 05:37:57;;;;;;;3.05;2.33;;;;;;;30.74;46.56;95841.31;5027208;28;20475;-59
2021/07/06 05:40:25;;;;;;;4.72;2.33;;;;;;;31.04;49.42;95837.47;5029449;28;20077;-58
2021/07/06 05:42:55;;;;;;;4.07;2.10;;;;;;;30.71;54.02;95834.53;5030260;28;20044;-60
2021/07/06 05:45:23;;;;;;;;;;;;;;;31.17;51.26;95830.50;5028258;28;20076;-60
2021/07/06 05:47:51;;;;;;;4.97;1.90;;;;;;;29.99;62.01;95828.88;5041847;28;19987;-58
2021/07/06 05:50:20;;;;;;;5.45;1.92;;;;;;;29.95;61.68;95819.66;5028510;28;20698;-59
2021/07/06 05:52:48;;;;;;;3.88;1.90;;;;;;;28.21;74.62;95814.03;5027540;28;20477;-60
2021/07/06 05:55:17;;;;;;;2.03;1.92;;;;;;;30.35;64.94;95809.59;5032301;28;20081;-59
2021/07/06 05:57:45;;;;;;;3.33;2.08;;;;;;;29.26;71.44;95813.28;5027269;28;20061;-62
2021/07/06 06:00:17;;;;;;;2.33;2.08;;;;;;;29.87;67.68;95808.56;5032869;28;20146;-60
2021/07/06 06:02:49;;;;;;;3.67;1.95;;;;;;;29.21;73.53;95812.47;5027261;28;20068;-59
2021/07/06 06:05:18;;;;;;;4.25;2.00;;;;;;;29.52;75.83;95815.84;5026254;28;20069;-59
2021/07/06 06:07:48;;;;;;;6.15;1.90;;;;;;;28.45;83.34;95810.78;5032636;28;20086;-59
2021/07/06 06:10:18;;;;;;;4.15;2.10;;;;;;;28.63;84.23;95802.91;5031075;28;20180;-59
2021/07/06 06:12:46;;;;;;;5.57;2.00;;;;;;;27.84;91.78;95798.88;5026621;28;20069;-59
2021/07/06 06:15:16;;;;;;;3.00;2.10;;;;;;;28.82;85.36;95794.97;5028195;28;20084;-60
2021/07/06 06:17:45;;;;;;;2.95;1.90;;;;;;;27.64;91.81;95798.84;5028841;28;20069;-59
2021/07/06 06:20:14;;;;;;;3.08;2.00;;;;;;;27.20;94.98;95800.06;5026968;28;20058;-59
2021/07/06 06:22:43;;;;;;;2.55;2.00;;;;;;;28.32;84.80;95793.16;5030271;28;20084;-58
2021/07/06 06:25:12;;;;;;;2.65;2.03;;;;;;;29.51;78.23;95792.50;5032305;28;20045;-59
2021/07/06 06:27:41;;;;;;;3.25;2.15;;;;;;;28.48;87.05;95791.25;5029070;28;20515;-59
2021/07/06 06:30:11;;;;;;;2.63;2.00;;;;;;;28.03;95.49;95779.34;5027457;28;20069;-58
2021/07/06 06:32:41;;;;;;;4.93;1.73;;;;;;;27.72;98.37;95779.31;5023395;28;20520;-58
2021/07/06 06:35:11;;;;;;;2.47;1.80;;;;;;;29.26;87.53;95779.88;5019932;28;20482;-57
2021/07/06 06:37:40;;;;;;;3.25;1.70;;;;;;;27.97;97.37;95783.97;5029490;28;20081;-57
2021/07/06 06:40:09;;;;;;;2.30;2.10;;;;;;;28.22;93.06;95787.72;5029883;28;20403;-59
2021/07/06 06:42:38;;;;;;;4.47;2.00;;;;;;;29.39;77.13;95787.41;5024424;28;20448;-57
2021/07/06 06:45:08;;;;;;;5.03;1.80;;;;;;;29.15;85.13;95789.16;5022604;28;20080;-58
2021/07/06 06:47:37;;;;;;;2.00;1.70;;;;;;;28.64;86.74;95792.84;5025394;28;20061;-58
2021/07/06 06:50:09;;;;;;;2.75;1.73;;;;;;;28.75;83.74;95782.78;5028109;28;20078;-58
2021/07/06 06:52:37;;;;;;;2.25;2.00;;;;;;;28.36;86.52;95784.22;5026968;28;20077;-58
2021/07/06 06:55:07;;;;;;;3.20;1.83;;;;;;;28.56;79.37;95780.69;5029083;28;20239;-57
2021/07/06 06:57:36;;;;;;;5.07;1.90;;;;;;;28.94;77.76;95774.81;5030939;28;20104;-58
2021/07/06 07:00:06;;;;;;;4.18;1.90;;;;;;;28.62;78.70;95765.19;5024979;28;20065;-59
2021/07/06 07:02:35;;;;;;;3.58;1.75;;;;;;;28.65;79.82;95764.63;5029559;28;20069;-57
2021/07/06 07:05:04;;;;;;;2.03;1.60;;;;;;;28.61;81.05;95766.28;5030589;28;20076;-59
2021/07/06 07:07:34;;;;;;;2.10;1.90;;;;;;;29.13;80.99;95758.75;5031043;28;20088;-59
2021/07/06 07:10:03;;;;;;;2.40;1.77;;;;;;;29.54;78.10;95762.84;5028940;28;20432;-58
2021/07/06 07:12:33;;;;;;;4.28;1.80;;;;;;;29.89;79.27;95750.13;5031472;28;20615;-58
2021/07/06 07:15:02;;;;;;;1.70;1.60;;;;;;;29.30;76.09;95745.63;5027812;28;20072;-57
2021/07/06 07:17:30;;;;;;;1.50;1.40;;;;;;;30.19;70.09;95738.19;5028556;28;20072;-58
2021/07/06 07:19:58;;;;;;;1.60;1.50;;;;;;;30.33;64.96;95749.19;5024797;28;20080;-59
2021/07/06 07:22:27;;;;;;;2.78;1.73;;;;;;;30.49;65.26;95731.63;5033096;28;20096;-57
2021/07/06 07:24:57;;;;;;;5.95;1.80;;;;;;;31.79;59.16;95729.63;5029991;28;20061;-59
2021/07/06 07:27:25;;;;;;;2.38;1.67;;;;;;;31.12;60.57;95724.34;5026807;28;20078;-58
2021/07/06 07:29:57;;;;;;;1.80;1.50;;;;;;;30.61;63.28;95733.13;5036773;28;20126;-57
2021/07/06 07:32:25;;;;;;;2.75;1.40;;;;;;;31.43;61.45;95747.34;5026544;28;20069;-58
2021/07/06 07:34:54;;;;;;;3.20;1.40;;;;;;;29.68;72.47;95743.22;5025832;28;20080;-58
2021/07/06 07:37:26;;;;;;;2.13;1.50;;;;;;;29.37;70.20;95750.75;5027367;28;20080;-59
2021/07/06 07:39:55;;;;;;;2.50;1.40;;;;;;;30.19;65.22;95738.19;5025527;28;20076;-58
2021/07/06 07:42:24;;;;;;;2.55;1.35;;;;;;;29.95;66.85;95743.53;5024928;28;20648;-57
2021/07/06 07:44:53;;;;;;;1.40;1.30;;;;;;;29.86;65.02;95739.00;5026478;28;20091;-58
2021/07/06 07:47:21;;;;;;;2.25;1.38;;;;;;;30.47;61.60;95741.97;5026004;28;20542;-57
2021/07/06 07:49:49;;;;;;;2.33;1.55;;;;;;;30.53;64.41;95741.94;5027927;28;20089;-58
2021/07/06 07:52:18;;;;;;;1.38;1.25;;;;;;;30.19;59.68;95743.63;5026337;28;20104;-58
2021/07/06 07:54:46;;;;;;;2.28;1.38;;;;;;;31.07;58.40;95741.53;5028221;28;20088;-59
2021/07/06 07:57:23;;;;;;;1.42;1.10;;;;;;;30.84;60.32;95740.50;5034811;28;20092;-59
2021/07/06 07:59:54;;;;;;;2.10;1.30;;;;;;;30.51;57.07;95747.66;5027139;28;20586;-57
2021/07/06 08:02:23;;;;;;;1.30;1.20;;;;;;;30.96;56.67;95738.16;5022091;28;20088;-58
2021/07/06 08:04:52;;;;;;;3.13;1.50;;;;;;;31.31;55.43;95737.94;5029110;28;20092;-58
2021/07/06 08:07:20;;;;;;;1.63;1.25;;;;;;;31.08;54.60;95742.38;5029579;28;20507;-58
2021/07/06 08:09:49;;;;;;;1.73;1.25;;;;;;;32.04;54.30;95733.88;5019503;28;20073;-58
2021/07/06 08:12:17;;;;;;;1.67;1.33;;;;;;;31.68;53.53;95732.50;5029044;28;20069;-57
2021/07/06 08:14:48;;;;;;;1.98;1.20;;;;;;;31.73;52.83;95728.91;5026496;28;20046;-57
2021/07/06 08:17:18;;;;;;;1.60;1.02;;;;;;;32.38;51.40;95722.59;5027161;28;20061;-58
2021/07/06 08:19:46;;;;;;;;;;;;;;;31.62;53.41;95720.06;5024440;28;20081;-58
2021/07/06 08:22:14;;;;;;;2.15;1.92;;;;;;;32.25;52.25;95717.97;5031312;28;19973;-58
2021/07/06 08:24:43;;;;;;;1.40;1.30;;;;;;;34.26;47.74;95714.09;5024882;28;20076;-58
2021/07/06 08:27:12;;;;;;;1.20;1.10;;;;;;;32.15;51.74;95718.94;5022316;28;20072;-59
2021/07/06 08:29:41;;;;;;;1.38;1.17;;;;;;;33.09;46.41;95715.75;5026699;28;20080;-58
2021/07/06 08:32:09;;;;;;;3.22;1.13;;;;;;;32.31;46.70;95703.94;5022372;28;20073;-59
2021/07/06 08:34:39;;;;;;;1.30;0.90;;;;;;;31.57;46.63;95705.72;5034045;28;20081;-58
2021/07/06 08:37:07;;;;;;;1.20;1.00;;;;;;;32.61;44.16;95705.25;5023520;28;20068;-58
2021/07/06 08:39:36;;;;;;;0.95;0.85;;;;;;;32.20;45.90;95705.19;5026196;28;20080;-58
2021/07/06 08:42:06;;;;;;;2.40;0.90;;;;;;;32.32;45.11;95705.53;5024073;28;20072;-59
2021/07/06 08:44:36;;;;;;;1.20;0.90;;;;;;;32.39;43.53;95710.59;5027636;28;20068;-57
2021/07/06 08:47:06;;;;;;;1.25;0.90;;;;;;;32.51;43.66;95702.72;5027279;28;20067;-56
2021/07/06 08:49:35;;;;;;;;;;;;;;;31.85;44.70;95701.16;5030445;28;20084;-57
2021/07/06 08:52:05;;;;;;;3.25;1.00;;;;;;;34.14;41.53;95690.06;5026168;28;20421;-58
2021/07/06 08:54:33;;;;;;;1.23;0.90;;;;;;;33.21;43.70;95698.00;5024131;28;20507;-59
2021/07/06 08:57:02;;;;;;;0.90;0.90;;;;;;;33.26;43.68;95700.66;5027399;28;20542;-57
2021/07/06 08:59:37;;;;;;;1.67;1.02;;;;;;;33.07;42.62;95696.16;5026278;28;20077;-56
2021/07/06 09:02:06;;;;;;;1.20;0.88;;;;;;;34.75;39.79;95698.53;5027644;28;20065;-55
2021/07/06 09:04:44;;;;;;;0.90;0.70;;;;;;;33.20;42.76;95699.13;5025301;28;20084;-56
2021/07/06 09:07:14;;;;;;;1.30;1.00;;;;;;;32.94;43.46;95690.69;5017435;28;21491;-57
2021/07/06 09:09:43;;;;;;;2.40;0.80;;;;;;;32.89;43.83;95691.56;5025809;28;20068;-55
2021/07/06 09:12:13;;;;;;;2.53;0.90;;;;;;;34.28;39.96;95691.91;5027411;28;20065;-58
2021/07/06 09:14:44;;;;;;;;;;;;;;;33.94;39.49;95699.56;5022890;28;20053;-58
2021/07/06 09:17:13;;;;;;;1.02;0.90;;;;;;;34.03;39.10;95699.66;5026516;28;19971;-58
2021/07/06 09:19:43;;;;;;;2.30;0.90;;;;;;;33.95;40.36;95692.97;5036212;28;20081;-58
2021/07/06 09:22:17;;;;;;;1.67;0.75;;;;;;;33.46;40.10;95708.38;5029434;28;20072;-56
2021/07/06 09:24:48;;;;;;;1.58;0.88;;;;;;;33.59;39.01;95695.81;5040732;23;20495;-58
2021/07/06 09:27:23;;;;;;;1.02;0.90;;;;;;;33.46;42.37;95704.84;5027248;28;20073;-53
2021/07/06 09:30:13;;;;;;;1.02;0.93;;;;;;;33.43;41.84;95694.53;5027256;28;20072;-57
2021/07/06 09:32:47;;;;;;;1.45;1.20;;;;;;;33.76;43.72;95692.38;5028837;28;20065;-55
2021/07/06 09:35:22;;;;;;;4.68;1.40;;;;;;;34.65;42.30;95683.22;5028639;28;20074;-58
2021/07/06 09:37:54;;;;;;;1.25;1.10;;;;;;;34.07;44.99;95686.13;5027762;28;20171;-57
2021/07/06 09:40:27;;;;;;;1.25;1.00;;;;;;;34.21;42.87;95679.47;5032277;28;20081;-55
2021/07/06 09:43:15;;;;;;;1.50;1.15;;;;;;;33.92;44.01;95679.13;5035300;28;20072;-57
2021/07/06 09:45:44;;;;;;;2.08;1.17;;;;;;;33.44;44.66;95679.72;5028856;28;20068;-57
2021/07/06 09:48:13;;;;;;;6.47;1.20;;;;;;;34.57;43.75;95683.97;5029618;28;20072;-55
2021/07/06 09:50:41;;;;;;;1.40;1.00;;;;;;;34.07;42.75;95688.88;5029904;28;20057;-52
2021/07/06 09:56:10;;;;;;;1.48;1.20;;;;;;;33.48;46.47;95683.47;5101200;27;21074;-57
2021/07/06 09:58:56;;;;;;;1.45;1.30;;;;;;;33.89;46.05;95675.06;5064848;28;20099;-53
2021/07/06 10:01:25;;;;;;;3.00;1.33;;;;;;;34.53;44.31;95671.25;5064153;28;20447;-59
2021/07/06 10:03:55;;;;;;;3.40;1.10;;;;;;;33.84;46.09;95675.22;5052689;28;20530;-51
2021/07/06 10:06:24;;;;;;;1.23;1.05;;;;;;;34.16;42.99;95671.38;5056660;28;20531;-55
2021/07/06 10:08:54;;;;;;;1.52;1.23;;;;;;;34.10;43.63;95656.22;5059137;28;20083;-59
2021/07/06 10:11:25;;;;;;;1.02;0.93;;;;;;;34.36;45.32;95658.28;5064201;28;20069;-56
2021/07/06 10:13:55;;;;;;;1.45;0.90;;;;;;;34.23;43.91;95662.72;5064360;28;20414;-54
2021/07/06 10:16:24;;;;;;;1.63;0.90;;;;;;;34.18;42.55;95665.63;5057949;28;20072;-54
2021/07/06 10:18:54;;;;;;;1.90;1.00;;;;;;;34.50;41.22;95662.50;5058700;28;20064;-55
2021/07/06 10:21:23;;;;;;;2.03;1.30;;;;;;;35.08;40.23;95660.59;5059527;28;20041;-57
2021/07/06 10:23:51;;;;;;;1.33;0.90;;;;;;;34.57;40.49;95656.59;5060128;28;20091;-56
2021/07/06 10:26:26;;;;;;;1.73;1.20;;;;;;;35.56;39.13;95648.69;5049896;28;20068;-58
2021/07/06 10:28:56;;;;;;;1.77;1.10;;;;;;;35.18;41.16;95660.28;5056383;28;20069;-54
2021/07/06 10:31:25;;;;;;;1.83;1.10;;;;;;;34.53;40.88;95649.34;5050699;28;20073;-58
2021/07/06 10:33:55;;;;;;;1.67;1.05;;;;;;;35.25;41.50;95645.28;5054843;28;20476;-54
2021/07/06 10:36:37;;;;;;;1.63;0.70;;;;;;;34.68;41.06;95651.63;5056483;28;20057;-56
2021/07/06 10:39:08;;;;;;;2.08;1.00;;;;;;;34.52;41.06;95640.31;5057295;28;20079;-56
2021/07/06 10:41:58;;;;;;;1.48;0.95;;;;;;;34.73;40.43;95640.53;5059846;28;20065;-54
2021/07/06 10:44:37;;;;;;;1.10;1.00;;;;;;;35.50;42.50;95638.97;5058210;28;20072;-55
2021/07/06 10:47:06;;;;;;;1.60;1.30;;;;;;;35.36;40.54;95633.66;5057335;28;20064;-57
2021/07/06 10:49:35;;;;;;;1.20;0.90;;;;;;;35.45;40.11;95633.66;5053246;28;20079;-59
2021/07/06 10:52:06;;;;;;;1.52;1.00;;;;;;;35.61;39.53;95634.78;5059883;28;20127;-57
2021/07/06 10:54:38;;;;;;;3.22;1.10;;;;;;;36.25;39.09;95633.19;5060153;28;20079;-57
2021/07/06 10:57:24;;;;;;;2.45;1.02;;;;;;;35.85;40.97;95627.97;5054591;28;20463;-59
2021/07/06 10:59:57;;;;;;;1.30;0.98;;;;;;;36.69;37.17;95631.06;5062794;28;20079;-57
2021/07/06 11:02:27;;;;;;;0.93;0.90;;;;;;;34.86;40.12;95633.28;5064833;28;20069;-57
2021/07/06 11:05:02;;;;;;;1.55;1.08;;;;;;;35.95;39.93;95624.06;5058093;28;20703;-58
2021/07/06 11:07:51;;;;;;;3.03;1.10;;;;;;;36.44;40.39;95625.31;5041405;28;20069;-56
2021/07/06 11:10:41;;;;;;;1.15;1.05;;;;;;;36.22;37.95;95620.13;5046507;28;20452;-57
2021/07/06 11:13:32;;;;;;;1.40;1.20;;;;;;;36.13;38.61;95618.22;5046517;28;20474;-56
2021/07/06 11:16:03;;;;;;;1.10;1.00;;;;;;;35.28;39.25;95617.25;5034170;28;20072;-53
2021/07/06 11:18:36;;;;;;;2.20;1.30;;;;;;;36.32;38.98;95617.81;5040774;28;20072;-55
2021/07/06 11:21:31;;;;;;;2.50;1.17;;;;;;;35.80;39.05;95615.22;5046783;28;20073;-59
2021/07/06 11:24:17;;;;;;;1.30;1.20;;;;;;;36.82;38.68;95610.75;5049235;28;20072;-57
2021/07/06 11:26:46;;;;;;;1.83;1.25;;;;;;;36.95;39.30;95617.94;5035764;28;20070;-53
2021/07/06 11:29:26;;;;;;;4.95;1.30;;;;;;;36.19;40.47;95616.09;5045397;28;20063;-53
2021/07/06 11:32:19;;;;;;;2.83;1.08;;;;;;;36.11;38.99;95611.44;5043067;28;20085;-55
2021/07/06 11:34:47;;;;;;;1.25;1.15;;;;;;;35.00;41.38;95616.69;5026640;28;20591;-58
2021/07/06 11:37:17;;;;;;;1.23;1.13;;;;;;;35.97;39.84;95619.06;5051257;28;20114;-58
2021/07/06 11:39:48;;;;;;;;;;;;;;;35.95;39.43;95621.31;5041001;28;20559;-57
2021/07/06 11:42:16;;;;;;;1.88;1.25;;;;;;;35.40;39.97;95620.91;5045890;28;19957;-56
2021/07/06 11:44:48;;;;;;;3.65;1.48;;;;;;;36.34;39.08;95617.47;5042683;28;20065;-56
2021/07/06 11:47:18;;;;;;;1.77;1.20;;;;;;;37.36;38.04;95618.28;5041298;28;20064;-58